sensor_id;sensor_type;location;lat;lon;timestamp;P1;durP1;ratioP1;P2;durP2;ratioP2
34236;SDS011;20501;45.956;13.632;2022-07-29T00:00:59;19.50;;;11.65;;
34236;SDS011;20501;45.956;13.632;2022-07-29T00:03:25;18.45;;;13.13;;
34236;SDS011;20501;45.956;13.632;2022-07-29T00:05:51;18.90;;;11.27;;
34236;SDS011;20501;45.956;13.632;2022-07-29T00:08:18;14.85;;;11.05;;
34236;SDS011;20501;45.956;13.632;2022-07-29T00:10:44;16.92;;;11.20;;
34236;SDS011;20501;45.956;13.632;2022-07-29T00:13:09;16.30;;;12.40;;
34236;SDS011;20501;45.956;13.632;2022-07-29T00:15:35;17.50;;;11.20;;
34236;SDS011;20501;45.956;13.632;2022-07-29T00:18:00;19.50;;;12.50;;
34236;SDS011;20501;45.956;13.632;2022-07-29T00:20:26;18.43;;;11.40;;
34236;SDS011;20501;45.956;13.632;2022-07-29T00:22:51;16.67;;;12.48;;
34236;SDS011;20501;45.956;13.632;2022-07-29T00:25:18;16.13;;;10.48;;
34236;SDS011;20501;45.956;13.632;2022-07-29T00:27:43;17.00;;;10.25;;
34236;SDS011;20501;45.956;13.632;2022-07-29T00:30:10;15.13;;;10.88;;
34236;SDS011;20501;45.956;13.632;2022-07-29T00:32:36;12.67;;;9.17;;
34236;SDS011;20501;45.956;13.632;2022-07-29T00:35:02;16.50;;;10.35;;
34236;SDS011;20501;45.956;13.632;2022-07-29T00:37:46;13.95;;;10.15;;
34236;SDS011;20501;45.956;13.632;2022-07-29T00:40:11;15.40;;;10.93;;
34236;SDS011;20501;45.956;13.632;2022-07-29T00:42:43;17.03;;;11.63;;
34236;SDS011;20501;45.956;13.632;2022-07-29T00:45:13;12.43;;;9.45;;
34236;SDS011;20501;45.956;13.632;2022-07-29T00:47:39;17.23;;;9.77;;
34236;SDS011;20501;45.956;13.632;2022-07-29T00:50:05;13.67;;;9.87;;
34236;SDS011;20501;45.956;13.632;2022-07-29T00:52:33;16.52;;;11.25;;
34236;SDS011;20501;45.956;13.632;2022-07-29T00:55:00;12.23;;;9.40;;
34236;SDS011;20501;45.956;13.632;2022-07-29T00:57:27;11.88;;;8.88;;
34236;SDS011;20501;45.956;13.632;2022-07-29T00:59:52;12.27;;;9.02;;
34236;SDS011;20501;45.956;13.632;2022-07-29T01:02:17;13.90;;;10.00;;
34236;SDS011;20501;45.956;13.632;2022-07-29T01:04:43;13.60;;;10.40;;
34236;SDS011;20501;45.956;13.632;2022-07-29T01:07:08;13.30;;;8.90;;
34236;SDS011;20501;45.956;13.632;2022-07-29T01:09:35;11.60;;;9.95;;
34236;SDS011;20501;45.956;13.632;2022-07-29T01:12:03;10.38;;;8.40;;
34236;SDS011;20501;45.956;13.632;2022-07-29T01:14:29;12.80;;;10.27;;
34236;SDS011;20501;45.956;13.632;2022-07-29T01:16:59;11.10;;;8.45;;
34236;SDS011;20501;45.956;13.632;2022-07-29T01:19:41;11.52;;;9.00;;
34236;SDS011;20501;45.956;13.632;2022-07-29T01:27:39;13.77;;;7.97;;
34236;SDS011;20501;45.956;13.632;2022-07-29T01:30:13;13.68;;;9.25;;
34236;SDS011;20501;45.956;13.632;2022-07-29T01:32:38;14.60;;;10.17;;
34236;SDS011;20501;45.956;13.632;2022-07-29T01:35:10;12.15;;;7.97;;
34236;SDS011;20501;45.956;13.632;2022-07-29T01:38:01;10.40;;;8.73;;
34236;SDS011;20501;45.956;13.632;2022-07-29T01:40:35;13.32;;;7.90;;
34236;SDS011;20501;45.956;13.632;2022-07-29T01:43:14;14.13;;;8.85;;
34236;SDS011;20501;45.956;13.632;2022-07-29T01:45:48;9.55;;;7.72;;
34236;SDS011;20501;45.956;13.632;2022-07-29T01:48:23;10.38;;;8.90;;
34236;SDS011;20501;45.956;13.632;2022-07-29T01:50:58;14.07;;;8.30;;
34236;SDS011;20501;45.956;13.632;2022-07-29T01:53:32;11.38;;;8.27;;
34236;SDS011;20501;45.956;13.632;2022-07-29T01:56:02;10.98;;;8.60;;
34236;SDS011;20501;45.956;13.632;2022-07-29T01:58:29;9.52;;;7.85;;
34236;SDS011;20501;45.956;13.632;2022-07-29T02:00:57;12.38;;;7.72;;
34236;SDS011;20501;45.956;13.632;2022-07-29T02:03:24;11.07;;;8.38;;
34236;SDS011;20501;45.956;13.632;2022-07-29T02:05:52;10.10;;;8.30;;
34236;SDS011;20501;45.956;13.632;2022-07-29T02:08:18;12.63;;;7.90;;
34236;SDS011;20501;45.956;13.632;2022-07-29T02:10:45;11.20;;;8.40;;
34236;SDS011;20501;45.956;13.632;2022-07-29T02:13:13;11.32;;;8.80;;
34236;SDS011;20501;45.956;13.632;2022-07-29T02:15:42;9.50;;;8.07;;
34236;SDS011;20501;45.956;13.632;2022-07-29T02:18:13;9.52;;;7.75;;
34236;SDS011;20501;45.956;13.632;2022-07-29T02:20:43;10.10;;;7.80;;
34236;SDS011;20501;45.956;13.632;2022-07-29T02:23:12;12.52;;;8.63;;
34236;SDS011;20501;45.956;13.632;2022-07-29T02:25:40;9.75;;;7.88;;
34236;SDS011;20501;45.956;13.632;2022-07-29T02:28:07;8.82;;;7.45;;
34236;SDS011;20501;45.956;13.632;2022-07-29T02:30:34;12.67;;;8.23;;
34236;SDS011;20501;45.956;13.632;2022-07-29T02:33:04;9.57;;;7.55;;
34236;SDS011;20501;45.956;13.632;2022-07-29T02:35:31;9.05;;;7.50;;
34236;SDS011;20501;45.956;13.632;2022-07-29T02:37:57;18.23;;;8.07;;
34236;SDS011;20501;45.956;13.632;2022-07-29T02:40:41;11.00;;;8.23;;
34236;SDS011;20501;45.956;13.632;2022-07-29T02:43:08;9.25;;;7.50;;
34236;SDS011;20501;45.956;13.632;2022-07-29T02:45:35;16.23;;;9.00;;
34236;SDS011;20501;45.956;13.632;2022-07-29T02:48:03;9.80;;;7.80;;
34236;SDS011;20501;45.956;13.632;2022-07-29T02:50:35;8.32;;;6.90;;
34236;SDS011;20501;45.956;13.632;2022-07-29T02:53:07;9.80;;;7.90;;
34236;SDS011;20501;45.956;13.632;2022-07-29T02:55:43;8.27;;;7.07;;
34236;SDS011;20501;45.956;13.632;2022-07-29T03:00:48;10.00;;;8.05;;
34236;SDS011;20501;45.956;13.632;2022-07-29T03:03:16;11.98;;;7.35;;
34236;SDS011;20501;45.956;13.632;2022-07-29T03:05:43;11.50;;;8.13;;
34236;SDS011;20501;45.956;13.632;2022-07-29T03:08:10;9.80;;;7.23;;
34236;SDS011;20501;45.956;13.632;2022-07-29T03:10:39;10.73;;;8.00;;
34236;SDS011;20501;45.956;13.632;2022-07-29T03:13:07;10.05;;;7.93;;
34236;SDS011;20501;45.956;13.632;2022-07-29T03:15:35;9.18;;;7.40;;
34236;SDS011;20501;45.956;13.632;2022-07-29T03:18:02;10.55;;;6.93;;
34236;SDS011;20501;45.956;13.632;2022-07-29T03:20:27;12.87;;;8.00;;
34236;SDS011;20501;45.956;13.632;2022-07-29T03:22:53;10.65;;;6.95;;
34236;SDS011;20501;45.956;13.632;2022-07-29T03:25:19;9.88;;;7.35;;
34236;SDS011;20501;45.956;13.632;2022-07-29T03:27:45;10.93;;;7.10;;
34236;SDS011;20501;45.956;13.632;2022-07-29T03:32:37;9.82;;;7.45;;
34236;SDS011;20501;45.956;13.632;2022-07-29T03:35:03;10.93;;;7.15;;
34236;SDS011;20501;45.956;13.632;2022-07-29T03:37:30;14.32;;;6.30;;
34236;SDS011;20501;45.956;13.632;2022-07-29T03:39:56;7.60;;;6.33;;
34236;SDS011;20501;45.956;13.632;2022-07-29T03:42:23;7.30;;;5.60;;
34236;SDS011;20501;45.956;13.632;2022-07-29T03:44:50;7.30;;;6.05;;
34236;SDS011;20501;45.956;13.632;2022-07-29T03:47:18;9.00;;;6.03;;
34236;SDS011;20501;45.956;13.632;2022-07-29T03:49:48;9.57;;;6.50;;
34236;SDS011;20501;45.956;13.632;2022-07-29T03:52:17;6.88;;;5.85;;
34236;SDS011;20501;45.956;13.632;2022-07-29T03:54:43;8.23;;;6.45;;
34236;SDS011;20501;45.956;13.632;2022-07-29T03:57:09;6.95;;;6.25;;
34236;SDS011;20501;45.956;13.632;2022-07-29T03:59:36;7.95;;;5.50;;
34236;SDS011;20501;45.956;13.632;2022-07-29T04:02:03;7.88;;;5.40;;
34236;SDS011;20501;45.956;13.632;2022-07-29T04:04:32;8.38;;;6.30;;
34236;SDS011;20501;45.956;13.632;2022-07-29T04:06:59;7.22;;;5.60;;
34236;SDS011;20501;45.956;13.632;2022-07-29T04:09:28;6.80;;;5.27;;
34236;SDS011;20501;45.956;13.632;2022-07-29T04:11:54;6.50;;;5.80;;
34236;SDS011;20501;45.956;13.632;2022-07-29T04:14:19;8.63;;;6.30;;
34236;SDS011;20501;45.956;13.632;2022-07-29T04:16:45;8.23;;;6.17;;
34236;SDS011;20501;45.956;13.632;2022-07-29T04:19:11;7.07;;;6.30;;
34236;SDS011;20501;45.956;13.632;2022-07-29T04:21:37;8.67;;;5.50;;
34236;SDS011;20501;45.956;13.632;2022-07-29T04:24:07;8.85;;;5.90;;
34236;SDS011;20501;45.956;13.632;2022-07-29T04:26:33;8.18;;;6.03;;
34236;SDS011;20501;45.956;13.632;2022-07-29T04:28:59;8.93;;;6.07;;
34236;SDS011;20501;45.956;13.632;2022-07-29T04:31:25;9.37;;;6.33;;
34236;SDS011;20501;45.956;13.632;2022-07-29T04:33:51;7.32;;;6.07;;
34236;SDS011;20501;45.956;13.632;2022-07-29T04:36:16;6.68;;;5.95;;
34236;SDS011;20501;45.956;13.632;2022-07-29T04:38:41;7.43;;;5.65;;
34236;SDS011;20501;45.956;13.632;2022-07-29T04:41:07;9.65;;;6.90;;
34236;SDS011;20501;45.956;13.632;2022-07-29T04:43:33;7.85;;;6.15;;
34236;SDS011;20501;45.956;13.632;2022-07-29T04:46:02;10.27;;;5.95;;
34236;SDS011;20501;45.956;13.632;2022-07-29T04:48:28;7.40;;;5.75;;
34236;SDS011;20501;45.956;13.632;2022-07-29T04:50:53;11.27;;;6.72;;
34236;SDS011;20501;45.956;13.632;2022-07-29T04:53:19;10.65;;;6.82;;
34236;SDS011;20501;45.956;13.632;2022-07-29T04:55:44;8.70;;;6.45;;
34236;SDS011;20501;45.956;13.632;2022-07-29T04:58:10;7.03;;;5.90;;
34236;SDS011;20501;45.956;13.632;2022-07-29T05:00:36;10.02;;;6.25;;
34236;SDS011;20501;45.956;13.632;2022-07-29T05:03:01;7.13;;;5.95;;
34236;SDS011;20501;45.956;13.632;2022-07-29T05:05:27;7.47;;;6.32;;
34236;SDS011;20501;45.956;13.632;2022-07-29T05:07:53;19.27;;;7.03;;
34236;SDS011;20501;45.956;13.632;2022-07-29T05:10:18;14.43;;;6.60;;
34236;SDS011;20501;45.956;13.632;2022-07-29T05:12:43;11.38;;;6.68;;
34236;SDS011;20501;45.956;13.632;2022-07-29T05:15:09;10.20;;;6.57;;
34236;SDS011;20501;45.956;13.632;2022-07-29T05:17:35;8.80;;;5.93;;
34236;SDS011;20501;45.956;13.632;2022-07-29T05:20:01;9.63;;;5.88;;
34236;SDS011;20501;45.956;13.632;2022-07-29T05:22:27;9.57;;;5.80;;
34236;SDS011;20501;45.956;13.632;2022-07-29T05:24:52;10.10;;;6.18;;
34236;SDS011;20501;45.956;13.632;2022-07-29T05:27:17;9.20;;;5.85;;
34236;SDS011;20501;45.956;13.632;2022-07-29T05:29:43;14.47;;;6.23;;
34236;SDS011;20501;45.956;13.632;2022-07-29T05:32:09;10.40;;;5.97;;
34236;SDS011;20501;45.956;13.632;2022-07-29T05:34:34;9.00;;;5.43;;
34236;SDS011;20501;45.956;13.632;2022-07-29T05:37:00;8.87;;;5.53;;
34236;SDS011;20501;45.956;13.632;2022-07-29T05:39:25;9.45;;;5.72;;
34236;SDS011;20501;45.956;13.632;2022-07-29T05:41:51;11.63;;;5.70;;
34236;SDS011;20501;45.956;13.632;2022-07-29T05:44:16;12.23;;;6.27;;
34236;SDS011;20501;45.956;13.632;2022-07-29T05:46:42;8.70;;;6.47;;
34236;SDS011;20501;45.956;13.632;2022-07-29T05:49:08;14.75;;;6.30;;
34236;SDS011;20501;45.956;13.632;2022-07-29T05:51:34;13.00;;;6.30;;
34236;SDS011;20501;45.956;13.632;2022-07-29T05:53:59;8.90;;;5.25;;
34236;SDS011;20501;45.956;13.632;2022-07-29T05:56:25;9.25;;;6.10;;
34236;SDS011;20501;45.956;13.632;2022-07-29T05:58:51;16.20;;;5.80;;
34236;SDS011;20501;45.956;13.632;2022-07-29T06:01:17;10.25;;;5.32;;
34236;SDS011;20501;45.956;13.632;2022-07-29T06:03:42;10.97;;;6.03;;
34236;SDS011;20501;45.956;13.632;2022-07-29T06:06:08;13.63;;;5.78;;
34236;SDS011;20501;45.956;13.632;2022-07-29T06:08:33;8.83;;;5.93;;
34236;SDS011;20501;45.956;13.632;2022-07-29T06:11:00;7.13;;;5.23;;
34236;SDS011;20501;45.956;13.632;2022-07-29T06:13:26;8.65;;;5.72;;
34236;SDS011;20501;45.956;13.632;2022-07-29T06:15:51;7.20;;;5.20;;
34236;SDS011;20501;45.956;13.632;2022-07-29T06:18:17;7.77;;;5.63;;
34236;SDS011;20501;45.956;13.632;2022-07-29T06:20:42;9.03;;;5.13;;
34236;SDS011;20501;45.956;13.632;2022-07-29T06:23:08;9.83;;;5.97;;
34236;SDS011;20501;45.956;13.632;2022-07-29T06:25:34;10.73;;;5.30;;
34236;SDS011;20501;45.956;13.632;2022-07-29T06:28:01;11.23;;;5.68;;
34236;SDS011;20501;45.956;13.632;2022-07-29T06:30:27;8.73;;;5.70;;
34236;SDS011;20501;45.956;13.632;2022-07-29T06:32:53;10.33;;;5.47;;
34236;SDS011;20501;45.956;13.632;2022-07-29T06:35:19;13.57;;;9.50;;
34236;SDS011;20501;45.956;13.632;2022-07-29T06:37:45;8.57;;;5.53;;
34236;SDS011;20501;45.956;13.632;2022-07-29T06:40:11;10.80;;;5.63;;
34236;SDS011;20501;45.956;13.632;2022-07-29T06:43:05;9.05;;;5.45;;
34236;SDS011;20501;45.956;13.632;2022-07-29T06:45:34;14.67;;;8.50;;
34236;SDS011;20501;45.956;13.632;2022-07-29T06:48:00;10.93;;;5.05;;
34236;SDS011;20501;45.956;13.632;2022-07-29T06:50:25;8.93;;;5.60;;
34236;SDS011;20501;45.956;13.632;2022-07-29T06:52:51;8.27;;;5.77;;
34236;SDS011;20501;45.956;13.632;2022-07-29T06:55:16;10.50;;;5.72;;
34236;SDS011;20501;45.956;13.632;2022-07-29T06:57:44;8.63;;;4.93;;
34236;SDS011;20501;45.956;13.632;2022-07-29T07:00:10;10.27;;;5.93;;
34236;SDS011;20501;45.956;13.632;2022-07-29T07:02:36;13.00;;;6.03;;
34236;SDS011;20501;45.956;13.632;2022-07-29T07:05:01;13.07;;;5.68;;
34236;SDS011;20501;45.956;13.632;2022-07-29T07:07:27;7.40;;;5.27;;
34236;SDS011;20501;45.956;13.632;2022-07-29T07:09:52;11.77;;;5.47;;
34236;SDS011;20501;45.956;13.632;2022-07-29T07:12:17;10.67;;;5.10;;
34236;SDS011;20501;45.956;13.632;2022-07-29T07:14:43;9.93;;;5.87;;
34236;SDS011;20501;45.956;13.632;2022-07-29T07:17:08;8.43;;;5.50;;
34236;SDS011;20501;45.956;13.632;2022-07-29T07:19:34;10.77;;;5.53;;
34236;SDS011;20501;45.956;13.632;2022-07-29T07:21:59;8.40;;;5.03;;
34236;SDS011;20501;45.956;13.632;2022-07-29T07:24:24;9.93;;;5.57;;
34236;SDS011;20501;45.956;13.632;2022-07-29T07:26:50;11.00;;;5.53;;
34236;SDS011;20501;45.956;13.632;2022-07-29T07:29:16;7.37;;;5.37;;
34236;SDS011;20501;45.956;13.632;2022-07-29T07:31:41;9.13;;;5.87;;
34236;SDS011;20501;45.956;13.632;2022-07-29T07:34:06;8.03;;;5.30;;
34236;SDS011;20501;45.956;13.632;2022-07-29T07:36:32;12.97;;;5.50;;
34236;SDS011;20501;45.956;13.632;2022-07-29T07:38:57;8.23;;;5.73;;
34236;SDS011;20501;45.956;13.632;2022-07-29T07:41:23;5.10;;;4.60;;
34236;SDS011;20501;45.956;13.632;2022-07-29T07:43:48;10.20;;;5.67;;
34236;SDS011;20501;45.956;13.632;2022-07-29T07:46:14;7.77;;;5.10;;
34236;SDS011;20501;45.956;13.632;2022-07-29T07:48:40;7.47;;;5.10;;
34236;SDS011;20501;45.956;13.632;2022-07-29T07:51:06;6.35;;;5.45;;
34236;SDS011;20501;45.956;13.632;2022-07-29T07:53:32;8.57;;;5.65;;
34236;SDS011;20501;45.956;13.632;2022-07-29T07:55:58;7.23;;;5.47;;
34236;SDS011;20501;45.956;13.632;2022-07-29T07:58:23;7.50;;;5.50;;
34236;SDS011;20501;45.956;13.632;2022-07-29T08:00:49;6.17;;;5.57;;
34236;SDS011;20501;45.956;13.632;2022-07-29T08:03:14;6.13;;;5.23;;
34236;SDS011;20501;45.956;13.632;2022-07-29T08:05:40;12.53;;;11.27;;
34236;SDS011;20501;45.956;13.632;2022-07-29T08:08:05;9.60;;;5.40;;
34236;SDS011;20501;45.956;13.632;2022-07-29T08:10:31;8.90;;;5.40;;
34236;SDS011;20501;45.956;13.632;2022-07-29T08:13:15;6.05;;;4.88;;
34236;SDS011;20501;45.956;13.632;2022-07-29T08:15:41;7.23;;;5.37;;
34236;SDS011;20501;45.956;13.632;2022-07-29T08:18:09;9.70;;;5.22;;
34236;SDS011;20501;45.956;13.632;2022-07-29T08:20:35;10.90;;;5.73;;
34236;SDS011;20501;45.956;13.632;2022-07-29T08:23:03;9.40;;;5.65;;
34236;SDS011;20501;45.956;13.632;2022-07-29T08:25:29;6.72;;;5.00;;
34236;SDS011;20501;45.956;13.632;2022-07-29T08:27:55;7.67;;;5.20;;
34236;SDS011;20501;45.956;13.632;2022-07-29T08:30:20;6.30;;;5.33;;
34236;SDS011;20501;45.956;13.632;2022-07-29T08:32:47;6.57;;;5.17;;
34236;SDS011;20501;45.956;13.632;2022-07-29T08:35:14;10.40;;;6.03;;
34236;SDS011;20501;45.956;13.632;2022-07-29T08:37:39;6.00;;;5.40;;
34236;SDS011;20501;45.956;13.632;2022-07-29T08:40:05;9.20;;;5.10;;
34236;SDS011;20501;45.956;13.632;2022-07-29T08:42:31;5.50;;;4.87;;
34236;SDS011;20501;45.956;13.632;2022-07-29T08:44:56;7.30;;;4.67;;
34236;SDS011;20501;45.956;13.632;2022-07-29T08:47:23;7.00;;;4.90;;
34236;SDS011;20501;45.956;13.632;2022-07-29T08:49:51;8.00;;;4.80;;
34236;SDS011;20501;45.956;13.632;2022-07-29T08:52:16;8.37;;;4.67;;
34236;SDS011;20501;45.956;13.632;2022-07-29T08:54:44;6.47;;;4.90;;
34236;SDS011;20501;45.956;13.632;2022-07-29T08:57:10;10.20;;;4.87;;
34236;SDS011;20501;45.956;13.632;2022-07-29T08:59:39;7.05;;;4.97;;
34236;SDS011;20501;45.956;13.632;2022-07-29T09:02:09;11.27;;;4.72;;
34236;SDS011;20501;45.956;13.632;2022-07-29T09:04:42;6.38;;;4.30;;
34236;SDS011;20501;45.956;13.632;2022-07-29T09:07:08;6.80;;;4.57;;
34236;SDS011;20501;45.956;13.632;2022-07-29T09:09:34;6.70;;;4.83;;
34236;SDS011;20501;45.956;13.632;2022-07-29T09:12:00;9.10;;;5.43;;
34236;SDS011;20501;45.956;13.632;2022-07-29T09:14:26;5.00;;;4.50;;
34236;SDS011;20501;45.956;13.632;2022-07-29T09:16:55;6.33;;;4.80;;
34236;SDS011;20501;45.956;13.632;2022-07-29T09:19:25;6.47;;;4.85;;
34236;SDS011;20501;45.956;13.632;2022-07-29T09:21:51;6.00;;;5.00;;
34236;SDS011;20501;45.956;13.632;2022-07-29T09:24:23;8.57;;;5.55;;
34236;SDS011;20501;45.956;13.632;2022-07-29T09:26:50;6.15;;;5.40;;
34236;SDS011;20501;45.956;13.632;2022-07-29T09:29:17;11.43;;;6.73;;
34236;SDS011;20501;45.956;13.632;2022-07-29T09:31:45;6.03;;;5.43;;
34236;SDS011;20501;45.956;13.632;2022-07-29T09:34:12;8.25;;;6.13;;
34236;SDS011;20501;45.956;13.632;2022-07-29T09:36:46;9.82;;;6.70;;
34236;SDS011;20501;45.956;13.632;2022-07-29T09:39:14;8.32;;;5.95;;
34236;SDS011;20501;45.956;13.632;2022-07-29T09:41:52;12.27;;;5.72;;
34236;SDS011;20501;45.956;13.632;2022-07-29T09:44:19;10.02;;;6.93;;
34236;SDS011;20501;45.956;13.632;2022-07-29T09:47:19;10.00;;;5.95;;
34236;SDS011;20501;45.956;13.632;2022-07-29T09:52:23;11.63;;;6.45;;
34236;SDS011;20501;45.956;13.632;2022-07-29T09:54:49;6.05;;;5.30;;
34236;SDS011;20501;45.956;13.632;2022-07-29T09:57:25;7.43;;;5.47;;
34236;SDS011;20501;45.956;13.632;2022-07-29T09:59:55;10.05;;;5.53;;
34236;SDS011;20501;45.956;13.632;2022-07-29T10:02:33;6.85;;;4.90;;
34236;SDS011;20501;45.956;13.632;2022-07-29T10:05:00;8.15;;;5.22;;
34236;SDS011;20501;45.956;13.632;2022-07-29T10:07:42;7.18;;;5.07;;
34236;SDS011;20501;45.956;13.632;2022-07-29T10:10:08;6.03;;;5.43;;
34236;SDS011;20501;45.956;13.632;2022-07-29T10:12:34;6.70;;;5.10;;
34236;SDS011;20501;45.956;13.632;2022-07-29T10:15:15;8.68;;;5.90;;
34236;SDS011;20501;45.956;13.632;2022-07-29T10:17:41;6.88;;;5.35;;
34236;SDS011;20501;45.956;13.632;2022-07-29T10:20:07;6.80;;;5.55;;
34236;SDS011;20501;45.956;13.632;2022-07-29T10:22:33;10.13;;;5.47;;
34236;SDS011;20501;45.956;13.632;2022-07-29T10:24:58;10.60;;;6.37;;
34236;SDS011;20501;45.956;13.632;2022-07-29T10:27:24;9.53;;;6.57;;
34236;SDS011;20501;45.956;13.632;2022-07-29T10:29:50;9.07;;;6.20;;
34236;SDS011;20501;45.956;13.632;2022-07-29T10:32:25;10.50;;;5.63;;
34236;SDS011;20501;45.956;13.632;2022-07-29T10:43:19;10.00;;;7.22;;
34236;SDS011;20501;45.956;13.632;2022-07-29T10:45:55;12.10;;;7.78;;
34236;SDS011;20501;45.956;13.632;2022-07-29T10:48:22;10.95;;;7.72;;
34236;SDS011;20501;45.956;13.632;2022-07-29T10:50:52;8.25;;;6.10;;
34236;SDS011;20501;45.956;13.632;2022-07-29T10:53:24;8.05;;;6.90;;
34236;SDS011;20501;45.956;13.632;2022-07-29T10:56:22;11.93;;;7.25;;
34236;SDS011;20501;45.956;13.632;2022-07-29T10:59:07;8.75;;;6.40;;
34236;SDS011;20501;45.956;13.632;2022-07-29T11:01:48;9.77;;;6.15;;
34236;SDS011;20501;45.956;13.632;2022-07-29T11:07:15;7.33;;;5.43;;
34236;SDS011;20501;45.956;13.632;2022-07-29T11:09:41;6.13;;;5.53;;
34236;SDS011;20501;45.956;13.632;2022-07-29T11:12:45;8.47;;;5.87;;
34236;SDS011;20501;45.956;13.632;2022-07-29T11:15:02;10.48;;;6.45;;
34236;SDS011;20501;45.956;13.632;2022-07-29T11:29:16;9.40;;;5.95;;
34236;SDS011;20501;45.956;13.632;2022-07-29T11:34:31;6.05;;;5.15;;
34236;SDS011;20501;45.956;13.632;2022-07-29T11:39:37;7.50;;;5.78;;
34236;SDS011;20501;45.956;13.632;2022-07-29T11:47:34;8.20;;;5.60;;
34236;SDS011;20501;45.956;13.632;2022-07-29T11:50:07;7.05;;;5.35;;
34236;SDS011;20501;45.956;13.632;2022-07-29T11:52:38;9.88;;;6.35;;
34236;SDS011;20501;45.956;13.632;2022-07-29T11:55:10;7.78;;;5.30;;
34236;SDS011;20501;45.956;13.632;2022-07-29T11:57:44;10.55;;;5.35;;
34236;SDS011;20501;45.956;13.632;2022-07-29T12:00:20;8.93;;;5.05;;
34236;SDS011;20501;45.956;13.632;2022-07-29T12:02:50;10.32;;;5.70;;
34236;SDS011;20501;45.956;13.632;2022-07-29T12:05:16;8.50;;;5.07;;
34236;SDS011;20501;45.956;13.632;2022-07-29T12:07:42;11.10;;;5.50;;
34236;SDS011;20501;45.956;13.632;2022-07-29T12:10:08;5.87;;;5.17;;
34236;SDS011;20501;45.956;13.632;2022-07-29T12:12:34;9.27;;;5.00;;
34236;SDS011;20501;45.956;13.632;2022-07-29T12:17:38;5.85;;;5.25;;
34236;SDS011;20501;45.956;13.632;2022-07-29T12:20:04;6.13;;;5.20;;
34236;SDS011;20501;45.956;13.632;2022-07-29T12:22:33;8.90;;;5.75;;
34236;SDS011;20501;45.956;13.632;2022-07-29T12:25:07;11.45;;;5.38;;
34236;SDS011;20501;45.956;13.632;2022-07-29T12:30:13;9.18;;;5.35;;
34236;SDS011;20501;45.956;13.632;2022-07-29T12:32:45;6.40;;;5.80;;
34236;SDS011;20501;45.956;13.632;2022-07-29T12:35:13;8.25;;;5.72;;
34236;SDS011;20501;45.956;13.632;2022-07-29T12:37:41;12.82;;;5.75;;
34236;SDS011;20501;45.956;13.632;2022-07-29T12:40:09;7.45;;;5.90;;
34236;SDS011;20501;45.956;13.632;2022-07-29T12:42:37;5.85;;;5.32;;
34236;SDS011;20501;45.956;13.632;2022-07-29T12:45:04;8.70;;;5.32;;
34236;SDS011;20501;45.956;13.632;2022-07-29T12:47:31;6.30;;;5.35;;
34236;SDS011;20501;45.956;13.632;2022-07-29T12:50:13;6.07;;;5.45;;
34236;SDS011;20501;45.956;13.632;2022-07-29T12:52:42;6.40;;;5.45;;
34236;SDS011;20501;45.956;13.632;2022-07-29T12:55:08;8.60;;;5.90;;
34236;SDS011;20501;45.956;13.632;2022-07-29T12:57:44;6.30;;;5.10;;
34236;SDS011;20501;45.956;13.632;2022-07-29T13:00:15;8.65;;;5.38;;
34236;SDS011;20501;45.956;13.632;2022-07-29T13:02:42;7.05;;;4.95;;
34236;SDS011;20501;45.956;13.632;2022-07-29T13:05:08;8.23;;;5.50;;
34236;SDS011;20501;45.956;13.632;2022-07-29T13:07:35;6.20;;;4.68;;
34236;SDS011;20501;45.956;13.632;2022-07-29T13:15:43;7.07;;;4.63;;
34236;SDS011;20501;45.956;13.632;2022-07-29T13:20:57;6.85;;;5.32;;
34236;SDS011;20501;45.956;13.632;2022-07-29T13:23:34;8.75;;;4.65;;
34236;SDS011;20501;45.956;13.632;2022-07-29T13:26:10;6.00;;;5.10;;
34236;SDS011;20501;45.956;13.632;2022-07-29T13:28:41;5.97;;;5.18;;
34236;SDS011;20501;45.956;13.632;2022-07-29T13:31:06;7.10;;;5.57;;
34236;SDS011;20501;45.956;13.632;2022-07-29T13:33:32;5.60;;;4.90;;
34236;SDS011;20501;45.956;13.632;2022-07-29T13:35:58;8.07;;;5.53;;
34236;SDS011;20501;45.956;13.632;2022-07-29T13:38:23;7.50;;;4.53;;
34236;SDS011;20501;45.956;13.632;2022-07-29T13:40:48;5.33;;;4.20;;
34236;SDS011;20501;45.956;13.632;2022-07-29T13:43:14;8.73;;;4.93;;
34236;SDS011;20501;45.956;13.632;2022-07-29T13:45:39;9.37;;;4.30;;
34236;SDS011;20501;45.956;13.632;2022-07-29T13:48:05;8.63;;;4.60;;
34236;SDS011;20501;45.956;13.632;2022-07-29T13:50:31;5.75;;;4.60;;
34236;SDS011;20501;45.956;13.632;2022-07-29T13:52:56;7.57;;;4.60;;
34236;SDS011;20501;45.956;13.632;2022-07-29T13:55:22;4.73;;;4.23;;
34236;SDS011;20501;45.956;13.632;2022-07-29T13:57:47;6.20;;;4.20;;
34236;SDS011;20501;45.956;13.632;2022-07-29T14:00:13;7.03;;;4.90;;
34236;SDS011;20501;45.956;13.632;2022-07-29T14:05:05;5.80;;;4.10;;
34236;SDS011;20501;45.956;13.632;2022-07-29T14:07:31;6.03;;;4.40;;
34236;SDS011;20501;45.956;13.632;2022-07-29T14:09:57;7.67;;;4.60;;
34236;SDS011;20501;45.956;13.632;2022-07-29T14:12:22;6.50;;;4.60;;
34236;SDS011;20501;45.956;13.632;2022-07-29T14:14:48;7.87;;;4.67;;
34236;SDS011;20501;45.956;13.632;2022-07-29T14:17:13;6.17;;;4.90;;
34236;SDS011;20501;45.956;13.632;2022-07-29T14:19:39;6.90;;;4.45;;
34236;SDS011;20501;45.956;13.632;2022-07-29T14:22:05;7.60;;;4.33;;
34236;SDS011;20501;45.956;13.632;2022-07-29T14:26:58;6.68;;;4.28;;
34236;SDS011;20501;45.956;13.632;2022-07-29T14:29:23;7.27;;;4.37;;
34236;SDS011;20501;45.956;13.632;2022-07-29T14:31:49;5.70;;;4.13;;
34236;SDS011;20501;45.956;13.632;2022-07-29T14:34:15;4.57;;;4.07;;
34236;SDS011;20501;45.956;13.632;2022-07-29T14:36:40;5.53;;;4.13;;
34236;SDS011;20501;45.956;13.632;2022-07-29T14:39:06;8.23;;;4.10;;
34236;SDS011;20501;45.956;13.632;2022-07-29T14:41:31;9.33;;;4.07;;
34236;SDS011;20501;45.956;13.632;2022-07-29T14:43:57;6.50;;;3.42;;
34236;SDS011;20501;45.956;13.632;2022-07-29T14:46:25;4.82;;;3.60;;
34236;SDS011;20501;45.956;13.632;2022-07-29T14:48:51;5.70;;;4.00;;
34236;SDS011;20501;45.956;13.632;2022-07-29T14:51:16;4.90;;;3.47;;
34236;SDS011;20501;45.956;13.632;2022-07-29T14:53:42;3.83;;;3.43;;
34236;SDS011;20501;45.956;13.632;2022-07-29T14:56:08;3.90;;;3.03;;
34236;SDS011;20501;45.956;13.632;2022-07-29T14:58:34;4.65;;;3.00;;
34236;SDS011;20501;45.956;13.632;2022-07-29T15:00:59;5.30;;;3.83;;
34236;SDS011;20501;45.956;13.632;2022-07-29T15:03:26;8.50;;;3.97;;
34236;SDS011;20501;45.956;13.632;2022-07-29T15:08:17;4.65;;;3.55;;
34236;SDS011;20501;45.956;13.632;2022-07-29T15:10:43;4.33;;;3.77;;
34236;SDS011;20501;45.956;13.632;2022-07-29T15:13:09;6.93;;;3.90;;
34236;SDS011;20501;45.956;13.632;2022-07-29T15:15:34;5.63;;;3.77;;
34236;SDS011;20501;45.956;13.632;2022-07-29T15:18:00;3.73;;;3.23;;
34236;SDS011;20501;45.956;13.632;2022-07-29T15:20:25;4.13;;;3.37;;
34236;SDS011;20501;45.956;13.632;2022-07-29T15:22:52;5.90;;;3.72;;
34236;SDS011;20501;45.956;13.632;2022-07-29T15:25:20;4.78;;;3.70;;
34236;SDS011;20501;45.956;13.632;2022-07-29T15:27:46;18.40;;;5.25;;
34236;SDS011;20501;45.956;13.632;2022-07-29T15:30:12;5.97;;;3.90;;
34236;SDS011;20501;45.956;13.632;2022-07-29T15:32:37;8.00;;;4.40;;
34236;SDS011;20501;45.956;13.632;2022-07-29T15:35:03;7.30;;;3.73;;
34236;SDS011;20501;45.956;13.632;2022-07-29T15:37:29;6.70;;;3.60;;
34236;SDS011;20501;45.956;13.632;2022-07-29T15:39:54;5.20;;;4.60;;